Wartburg, TN (37887)

10:04 PM EST on December 08, 2016 (GMT -0500)
417 Riverview St | | Change Station

Elev 787 ft 35.98 °N, 84.56 °W | Updated 52 seconds ago

Partly Cloudy
Partly Cloudy
31.8 °F
Feels Like 32 °F
N
2.7
Wind Variable Wind from WSW

Today
High -- | Low -- °F
--% Chance of Precip.
Yesterday
High -- | Low -- °F
Precip. -- in
Pressure 30.45 in
Visibility 10.0 miles
Clouds Clear
Windchill 32 °F
Dew Point 21 °F
Humidity 64%
Rainfall 0.00 in
Snow Depth Not available.
7:37 AM 5:23 PM
Waxing Gibbous, 69% visible
METAR KOQT 090253Z AUTO VRB03KT 10SM CLR 00/M09 A3040 RMK AO2 SLP310 T00001089 51016
Pressure 30.45 in
Visibility 10.0 miles
Clouds Clear
Windchill 32 °F
Dew Point 21 °F
Humidity 64%
Rainfall 0.00 in
Snow Depth Not available.
7:37 AM 5:23 PM
Waxing Gibbous, 69% visible
METAR KOQT 090253Z AUTO VRB03KT 10SM CLR 00/M09 A3040 RMK AO2 SLP310 T00001089 51016

10-Day Weather Forecast

Almanac

Astronomy

Dec. 08, 2016 Rise Set
Actual Time
Civil Twilight
Nautical Twilight
Astronomical Twilight
Moon
Length of Visible Light
Length of Day
Tomorrow will be .
, % of the Moon is Illuminated

Today's Extremes

State Highs State Lows

Community

WunderPhotos

Upload Photos

1,956,351 photos uploaded!

WunderBlog® & News

Nearby

Air Quality

  Air Quality AQ Index Pollutant
Not available.

Snow Depth

Station Depth Elevation

Earthquake Activity

City Distance Mag. Time & Date
Minimum magnitude displayed is 2.5.

Coastal Water Temperatures

Place Temperature

Stations

Nearby Weather Stations

Station Location Temp. Windchill Dew Point Humidity Wind Precip. Elev Updated Type
                   

Watches & Warnings

There are currently no watches in effect.